sensor_id;sensor_type;location;lat;lon;timestamp;P1;durP1;ratioP1;P2;durP2;ratioP2
4704;SDS011;2366;51.332;6.610;2023-02-15T00:00:11;46.10;;;26.30;;
4704;SDS011;2366;51.332;6.610;2023-02-15T00:02:37;43.13;;;25.40;;
4704;SDS011;2366;51.332;6.610;2023-02-15T00:05:02;46.20;;;25.30;;
4704;SDS011;2366;51.332;6.610;2023-02-15T00:07:27;41.63;;;26.80;;
4704;SDS011;2366;51.332;6.610;2023-02-15T00:09:53;41.13;;;24.70;;
4704;SDS011;2366;51.332;6.610;2023-02-15T00:12:18;51.37;;;26.47;;
4704;SDS011;2366;51.332;6.610;2023-02-15T00:14:44;48.57;;;26.73;;
4704;SDS011;2366;51.332;6.610;2023-02-15T00:17:09;52.03;;;26.57;;
4704;SDS011;2366;51.332;6.610;2023-02-15T00:19:34;54.37;;;27.30;;
4704;SDS011;2366;51.332;6.610;2023-02-15T00:22:00;58.87;;;27.00;;
4704;SDS011;2366;51.332;6.610;2023-02-15T00:24:25;47.03;;;26.43;;
4704;SDS011;2366;51.332;6.610;2023-02-15T00:26:51;51.23;;;29.03;;
4704;SDS011;2366;51.332;6.610;2023-02-15T00:29:18;42.22;;;26.23;;
4704;SDS011;2366;51.332;6.610;2023-02-15T00:31:44;49.20;;;27.65;;
4704;SDS011;2366;51.332;6.610;2023-02-15T00:34:13;47.73;;;26.03;;
4704;SDS011;2366;51.332;6.610;2023-02-15T00:36:40;60.90;;;27.55;;
4704;SDS011;2366;51.332;6.610;2023-02-15T00:39:06;48.08;;;26.23;;
4704;SDS011;2366;51.332;6.610;2023-02-15T00:41:32;56.50;;;29.13;;
4704;SDS011;2366;51.332;6.610;2023-02-15T00:43:58;52.55;;;27.55;;
4704;SDS011;2366;51.332;6.610;2023-02-15T00:46:23;54.63;;;28.87;;
4704;SDS011;2366;51.332;6.610;2023-02-15T00:48:49;49.00;;;25.77;;
4704;SDS011;2366;51.332;6.610;2023-02-15T00:51:15;55.70;;;28.40;;
4704;SDS011;2366;51.332;6.610;2023-02-15T00:53:42;56.30;;;27.77;;
4704;SDS011;2366;51.332;6.610;2023-02-15T00:56:08;53.67;;;25.05;;
4704;SDS011;2366;51.332;6.610;2023-02-15T00:58:34;50.47;;;27.17;;
4704;SDS011;2366;51.332;6.610;2023-02-15T01:01:07;51.77;;;28.03;;
4704;SDS011;2366;51.332;6.610;2023-02-15T01:03:34;53.42;;;29.10;;
4704;SDS011;2366;51.332;6.610;2023-02-15T01:06:00;64.43;;;28.23;;
4704;SDS011;2366;51.332;6.610;2023-02-15T01:08:26;49.37;;;27.00;;
4704;SDS011;2366;51.332;6.610;2023-02-15T01:10:51;54.13;;;28.53;;
4704;SDS011;2366;51.332;6.610;2023-02-15T01:13:18;56.13;;;26.50;;
4704;SDS011;2366;51.332;6.610;2023-02-15T01:15:43;51.13;;;28.20;;
4704;SDS011;2366;51.332;6.610;2023-02-15T01:18:09;50.57;;;29.27;;
4704;SDS011;2366;51.332;6.610;2023-02-15T01:20:36;54.45;;;29.73;;
4704;SDS011;2366;51.332;6.610;2023-02-15T01:23:04;57.17;;;29.17;;
4704;SDS011;2366;51.332;6.610;2023-02-15T01:25:32;52.90;;;26.27;;
4704;SDS011;2366;51.332;6.610;2023-02-15T01:27:58;52.08;;;27.70;;
4704;SDS011;2366;51.332;6.610;2023-02-15T01:30:24;49.87;;;25.97;;
4704;SDS011;2366;51.332;6.610;2023-02-15T01:32:49;49.00;;;27.83;;
4704;SDS011;2366;51.332;6.610;2023-02-15T01:35:15;49.70;;;27.20;;
4704;SDS011;2366;51.332;6.610;2023-02-15T01:37:40;58.20;;;30.30;;
4704;SDS011;2366;51.332;6.610;2023-02-15T01:40:06;48.97;;;25.60;;
4704;SDS011;2366;51.332;6.610;2023-02-15T01:42:37;57.25;;;28.67;;
4704;SDS011;2366;51.332;6.610;2023-02-15T01:45:14;54.33;;;29.67;;
4704;SDS011;2366;51.332;6.610;2023-02-15T01:47:47;52.15;;;27.63;;
4704;SDS011;2366;51.332;6.610;2023-02-15T01:50:18;53.33;;;30.38;;
4704;SDS011;2366;51.332;6.610;2023-02-15T01:52:51;63.60;;;30.13;;
4704;SDS011;2366;51.332;6.610;2023-02-15T01:55:29;58.22;;;29.45;;
4704;SDS011;2366;51.332;6.610;2023-02-15T01:58:01;55.72;;;26.95;;
4704;SDS011;2366;51.332;6.610;2023-02-15T02:00:28;52.40;;;29.38;;
4704;SDS011;2366;51.332;6.610;2023-02-15T02:02:54;54.95;;;29.08;;
4704;SDS011;2366;51.332;6.610;2023-02-15T02:05:22;53.25;;;27.55;;
4704;SDS011;2366;51.332;6.610;2023-02-15T02:07:48;55.83;;;28.63;;
4704;SDS011;2366;51.332;6.610;2023-02-15T02:10:18;47.72;;;25.17;;
4704;SDS011;2366;51.332;6.610;2023-02-15T02:12:47;47.55;;;27.55;;
4704;SDS011;2366;51.332;6.610;2023-02-15T02:15:15;50.55;;;27.35;;
4704;SDS011;2366;51.332;6.610;2023-02-15T02:23:40;52.03;;;28.88;;
4704;SDS011;2366;51.332;6.610;2023-02-15T02:31:55;61.47;;;30.85;;
4704;SDS011;2366;51.332;6.610;2023-02-15T02:34:46;56.95;;;28.80;;
4704;SDS011;2366;51.332;6.610;2023-02-15T02:37:42;55.45;;;28.85;;
4704;SDS011;2366;51.332;6.610;2023-02-15T02:40:19;51.92;;;27.88;;
4704;SDS011;2366;51.332;6.610;2023-02-15T02:42:54;61.83;;;31.65;;
4704;SDS011;2366;51.332;6.610;2023-02-15T02:45:35;52.25;;;28.30;;
4704;SDS011;2366;51.332;6.610;2023-02-15T02:48:30;55.80;;;28.95;;
4704;SDS011;2366;51.332;6.610;2023-02-15T02:50:58;54.55;;;30.08;;
4704;SDS011;2366;51.332;6.610;2023-02-15T02:53:23;51.20;;;29.90;;
4704;SDS011;2366;51.332;6.610;2023-02-15T03:01:48;54.42;;;27.50;;
4704;SDS011;2366;51.332;6.610;2023-02-15T03:04:43;59.50;;;31.73;;
4704;SDS011;2366;51.332;6.610;2023-02-15T03:07:11;51.05;;;26.25;;
4704;SDS011;2366;51.332;6.610;2023-02-15T03:09:45;56.90;;;28.45;;
4704;SDS011;2366;51.332;6.610;2023-02-15T03:12:14;59.75;;;31.58;;
4704;SDS011;2366;51.332;6.610;2023-02-15T03:14:40;48.22;;;26.88;;
4704;SDS011;2366;51.332;6.610;2023-02-15T03:17:11;59.20;;;30.50;;
4704;SDS011;2366;51.332;6.610;2023-02-15T03:19:38;51.78;;;29.52;;
4704;SDS011;2366;51.332;6.610;2023-02-15T03:22:15;59.97;;;32.85;;
4704;SDS011;2366;51.332;6.610;2023-02-15T03:25:04;50.88;;;29.02;;
4704;SDS011;2366;51.332;6.610;2023-02-15T03:27:55;57.20;;;29.98;;
4704;SDS011;2366;51.332;6.610;2023-02-15T03:30:26;64.15;;;30.95;;
4704;SDS011;2366;51.332;6.610;2023-02-15T03:32:54;58.78;;;29.52;;
4704;SDS011;2366;51.332;6.610;2023-02-15T03:35:24;60.47;;;30.90;;
4704;SDS011;2366;51.332;6.610;2023-02-15T03:37:58;60.15;;;28.10;;
4704;SDS011;2366;51.332;6.610;2023-02-15T03:40:30;58.28;;;31.00;;
4704;SDS011;2366;51.332;6.610;2023-02-15T03:45:59;58.33;;;29.27;;
4704;SDS011;2366;51.332;6.610;2023-02-15T03:48:34;51.05;;;28.77;;
4704;SDS011;2366;51.332;6.610;2023-02-15T03:51:05;59.05;;;30.02;;
4704;SDS011;2366;51.332;6.610;2023-02-15T03:53:53;50.10;;;27.67;;
4704;SDS011;2366;51.332;6.610;2023-02-15T03:56:20;63.88;;;30.13;;
4704;SDS011;2366;51.332;6.610;2023-02-15T03:58:45;51.00;;;27.47;;
4704;SDS011;2366;51.332;6.610;2023-02-15T04:01:34;56.50;;;28.85;;
4704;SDS011;2366;51.332;6.610;2023-02-15T04:04:22;59.45;;;30.13;;
4704;SDS011;2366;51.332;6.610;2023-02-15T04:06:58;55.88;;;28.67;;
4704;SDS011;2366;51.332;6.610;2023-02-15T04:09:24;58.38;;;29.33;;
4704;SDS011;2366;51.332;6.610;2023-02-15T04:12:08;63.45;;;29.33;;
4704;SDS011;2366;51.332;6.610;2023-02-15T04:14:33;51.30;;;27.40;;
4704;SDS011;2366;51.332;6.610;2023-02-15T04:17:18;57.35;;;28.65;;
4704;SDS011;2366;51.332;6.610;2023-02-15T04:19:43;64.97;;;29.07;;
4704;SDS011;2366;51.332;6.610;2023-02-15T04:22:27;57.75;;;27.65;;
4704;SDS011;2366;51.332;6.610;2023-02-15T04:25:11;55.70;;;27.75;;
4704;SDS011;2366;51.332;6.610;2023-02-15T04:27:37;55.92;;;27.63;;
4704;SDS011;2366;51.332;6.610;2023-02-15T04:30:04;50.92;;;26.65;;
4704;SDS011;2366;51.332;6.610;2023-02-15T04:32:30;55.65;;;29.52;;
4704;SDS011;2366;51.332;6.610;2023-02-15T04:34:55;64.20;;;29.80;;
4704;SDS011;2366;51.332;6.610;2023-02-15T04:37:21;59.87;;;30.67;;
4704;SDS011;2366;51.332;6.610;2023-02-15T04:39:46;55.23;;;28.13;;
4704;SDS011;2366;51.332;6.610;2023-02-15T04:42:11;55.00;;;28.57;;
4704;SDS011;2366;51.332;6.610;2023-02-15T04:44:37;62.57;;;29.83;;
4704;SDS011;2366;51.332;6.610;2023-02-15T04:47:02;54.40;;;29.60;;
4704;SDS011;2366;51.332;6.610;2023-02-15T04:49:29;56.25;;;28.55;;
4704;SDS011;2366;51.332;6.610;2023-02-15T04:51:54;58.47;;;27.83;;
4704;SDS011;2366;51.332;6.610;2023-02-15T04:54:19;52.97;;;28.33;;
4704;SDS011;2366;51.332;6.610;2023-02-15T04:56:45;61.80;;;27.07;;
4704;SDS011;2366;51.332;6.610;2023-02-15T04:59:10;54.47;;;27.53;;
4704;SDS011;2366;51.332;6.610;2023-02-15T05:01:36;53.43;;;28.93;;
4704;SDS011;2366;51.332;6.610;2023-02-15T05:04:01;57.60;;;29.00;;
4704;SDS011;2366;51.332;6.610;2023-02-15T05:06:27;50.08;;;27.15;;
4704;SDS011;2366;51.332;6.610;2023-02-15T05:08:53;57.97;;;27.63;;
4704;SDS011;2366;51.332;6.610;2023-02-15T05:11:19;51.03;;;27.30;;
4704;SDS011;2366;51.332;6.610;2023-02-15T05:13:44;55.63;;;27.50;;
4704;SDS011;2366;51.332;6.610;2023-02-15T05:16:09;51.70;;;26.63;;
4704;SDS011;2366;51.332;6.610;2023-02-15T05:18:35;52.73;;;25.53;;
4704;SDS011;2366;51.332;6.610;2023-02-15T05:21:00;48.30;;;27.50;;
4704;SDS011;2366;51.332;6.610;2023-02-15T05:23:25;48.17;;;28.13;;
4704;SDS011;2366;51.332;6.610;2023-02-15T05:25:51;48.57;;;28.23;;
4704;SDS011;2366;51.332;6.610;2023-02-15T05:28:36;55.60;;;28.10;;
4704;SDS011;2366;51.332;6.610;2023-02-15T05:31:06;51.42;;;27.45;;
4704;SDS011;2366;51.332;6.610;2023-02-15T05:33:35;50.10;;;27.20;;
4704;SDS011;2366;51.332;6.610;2023-02-15T05:36:01;52.30;;;29.50;;
4704;SDS011;2366;51.332;6.610;2023-02-15T05:38:27;59.05;;;25.40;;
4704;SDS011;2366;51.332;6.610;2023-02-15T05:40:52;51.40;;;25.10;;
4704;SDS011;2366;51.332;6.610;2023-02-15T05:43:18;45.60;;;25.00;;
4704;SDS011;2366;51.332;6.610;2023-02-15T05:45:45;49.90;;;25.23;;
4704;SDS011;2366;51.332;6.610;2023-02-15T05:48:11;50.20;;;26.50;;
4704;SDS011;2366;51.332;6.610;2023-02-15T05:50:37;49.47;;;26.43;;
4704;SDS011;2366;51.332;6.610;2023-02-15T05:53:02;52.00;;;28.50;;
4704;SDS011;2366;51.332;6.610;2023-02-15T05:55:27;55.50;;;29.80;;
4704;SDS011;2366;51.332;6.610;2023-02-15T05:57:53;51.30;;;26.07;;
4704;SDS011;2366;51.332;6.610;2023-02-15T06:00:18;54.47;;;26.83;;
4704;SDS011;2366;51.332;6.610;2023-02-15T06:02:43;57.97;;;27.20;;
4704;SDS011;2366;51.332;6.610;2023-02-15T06:05:09;51.30;;;26.90;;
4704;SDS011;2366;51.332;6.610;2023-02-15T06:07:34;50.93;;;27.00;;
4704;SDS011;2366;51.332;6.610;2023-02-15T06:10:00;59.23;;;29.30;;
4704;SDS011;2366;51.332;6.610;2023-02-15T06:12:25;45.40;;;24.90;;
4704;SDS011;2366;51.332;6.610;2023-02-15T06:14:51;52.53;;;28.10;;
4704;SDS011;2366;51.332;6.610;2023-02-15T06:17:16;46.77;;;25.90;;
4704;SDS011;2366;51.332;6.610;2023-02-15T06:19:42;50.83;;;26.23;;
4704;SDS011;2366;51.332;6.610;2023-02-15T06:22:08;54.47;;;25.02;;
4704;SDS011;2366;51.332;6.610;2023-02-15T06:24:33;48.13;;;24.90;;
4704;SDS011;2366;51.332;6.610;2023-02-15T06:26:59;48.77;;;26.40;;
4704;SDS011;2366;51.332;6.610;2023-02-15T06:29:24;47.93;;;23.93;;
4704;SDS011;2366;51.332;6.610;2023-02-15T06:31:50;46.13;;;25.00;;
4704;SDS011;2366;51.332;6.610;2023-02-15T06:34:15;61.13;;;30.43;;
4704;SDS011;2366;51.332;6.610;2023-02-15T06:36:41;39.50;;;22.83;;
4704;SDS011;2366;51.332;6.610;2023-02-15T06:39:06;49.97;;;25.83;;
4704;SDS011;2366;51.332;6.610;2023-02-15T06:41:31;47.03;;;24.80;;
4704;SDS011;2366;51.332;6.610;2023-02-15T06:43:57;45.87;;;22.73;;
4704;SDS011;2366;51.332;6.610;2023-02-15T06:46:22;51.60;;;25.63;;
4704;SDS011;2366;51.332;6.610;2023-02-15T06:48:48;52.00;;;26.70;;
4704;SDS011;2366;51.332;6.610;2023-02-15T06:51:13;53.13;;;26.03;;
4704;SDS011;2366;51.332;6.610;2023-02-15T06:53:39;47.27;;;26.33;;
4704;SDS011;2366;51.332;6.610;2023-02-15T06:56:08;50.72;;;26.35;;
4704;SDS011;2366;51.332;6.610;2023-02-15T06:58:43;49.38;;;24.48;;
4704;SDS011;2366;51.332;6.610;2023-02-15T07:01:11;53.15;;;27.50;;
4704;SDS011;2366;51.332;6.610;2023-02-15T07:03:37;52.83;;;27.38;;
4704;SDS011;2366;51.332;6.610;2023-02-15T07:06:03;49.53;;;26.27;;
4704;SDS011;2366;51.332;6.610;2023-02-15T07:08:33;53.45;;;24.85;;
4704;SDS011;2366;51.332;6.610;2023-02-15T07:10:59;45.10;;;25.13;;
4704;SDS011;2366;51.332;6.610;2023-02-15T07:13:44;66.80;;;25.40;;
4704;SDS011;2366;51.332;6.610;2023-02-15T07:16:10;46.30;;;24.92;;
4704;SDS011;2366;51.332;6.610;2023-02-15T07:18:36;48.90;;;23.83;;
4704;SDS011;2366;51.332;6.610;2023-02-15T07:21:02;50.07;;;23.33;;
4704;SDS011;2366;51.332;6.610;2023-02-15T07:23:27;50.90;;;25.23;;
4704;SDS011;2366;51.332;6.610;2023-02-15T07:25:57;44.17;;;24.97;;
4704;SDS011;2366;51.332;6.610;2023-02-15T07:28:22;37.85;;;22.58;;
4704;SDS011;2366;51.332;6.610;2023-02-15T07:30:48;40.30;;;23.70;;
4704;SDS011;2366;51.332;6.610;2023-02-15T07:33:13;38.00;;;23.50;;
4704;SDS011;2366;51.332;6.610;2023-02-15T07:35:51;36.80;;;21.67;;
4704;SDS011;2366;51.332;6.610;2023-02-15T07:38:23;39.30;;;22.67;;
4704;SDS011;2366;51.332;6.610;2023-02-15T07:40:49;30.67;;;19.10;;
4704;SDS011;2366;51.332;6.610;2023-02-15T07:43:15;34.20;;;19.87;;
4704;SDS011;2366;51.332;6.610;2023-02-15T07:45:41;35.92;;;21.50;;
4704;SDS011;2366;51.332;6.610;2023-02-15T07:48:07;29.80;;;20.07;;
4704;SDS011;2366;51.332;6.610;2023-02-15T07:50:32;30.90;;;22.57;;
4704;SDS011;2366;51.332;6.610;2023-02-15T07:52:58;32.60;;;21.40;;
4704;SDS011;2366;51.332;6.610;2023-02-15T07:55:26;30.45;;;20.75;;
4704;SDS011;2366;51.332;6.610;2023-02-15T07:57:51;27.20;;;18.67;;
4704;SDS011;2366;51.332;6.610;2023-02-15T08:00:19;36.28;;;18.02;;
4704;SDS011;2366;51.332;6.610;2023-02-15T08:02:50;33.88;;;21.05;;
4704;SDS011;2366;51.332;6.610;2023-02-15T08:05:37;31.85;;;20.10;;
4704;SDS011;2366;51.332;6.610;2023-02-15T08:08:02;25.30;;;18.70;;
4704;SDS011;2366;51.332;6.610;2023-02-15T08:10:28;24.63;;;19.53;;
4704;SDS011;2366;51.332;6.610;2023-02-15T08:13:11;28.55;;;19.08;;
4704;SDS011;2366;51.332;6.610;2023-02-15T08:15:37;30.50;;;21.40;;
4704;SDS011;2366;51.332;6.610;2023-02-15T08:18:02;28.17;;;18.70;;
4704;SDS011;2366;51.332;6.610;2023-02-15T08:20:28;28.63;;;19.77;;
4704;SDS011;2366;51.332;6.610;2023-02-15T08:22:53;26.20;;;19.30;;
4704;SDS011;2366;51.332;6.610;2023-02-15T08:25:18;26.93;;;20.70;;
4704;SDS011;2366;51.332;6.610;2023-02-15T08:27:44;24.57;;;18.40;;
4704;SDS011;2366;51.332;6.610;2023-02-15T08:30:09;25.27;;;19.50;;
4704;SDS011;2366;51.332;6.610;2023-02-15T08:32:35;30.15;;;19.67;;
4704;SDS011;2366;51.332;6.610;2023-02-15T08:35:01;28.67;;;18.05;;
4704;SDS011;2366;51.332;6.610;2023-02-15T08:37:27;27.47;;;20.03;;
4704;SDS011;2366;51.332;6.610;2023-02-15T08:39:52;26.27;;;19.40;;
4704;SDS011;2366;51.332;6.610;2023-02-15T08:42:17;30.40;;;19.03;;
4704;SDS011;2366;51.332;6.610;2023-02-15T08:44:45;25.63;;;20.25;;
4704;SDS011;2366;51.332;6.610;2023-02-15T08:47:11;26.97;;;18.50;;
4704;SDS011;2366;51.332;6.610;2023-02-15T08:49:36;28.50;;;19.50;;
4704;SDS011;2366;51.332;6.610;2023-02-15T08:52:02;28.90;;;19.37;;
4704;SDS011;2366;51.332;6.610;2023-02-15T08:54:27;23.13;;;17.57;;
4704;SDS011;2366;51.332;6.610;2023-02-15T08:56:52;23.63;;;17.40;;
4704;SDS011;2366;51.332;6.610;2023-02-15T08:59:21;26.60;;;20.50;;
4704;SDS011;2366;51.332;6.610;2023-02-15T09:01:48;23.77;;;17.80;;
4704;SDS011;2366;51.332;6.610;2023-02-15T09:04:15;23.20;;;18.73;;
4704;SDS011;2366;51.332;6.610;2023-02-15T09:06:42;29.10;;;18.77;;
4704;SDS011;2366;51.332;6.610;2023-02-15T09:09:09;24.80;;;18.55;;
4704;SDS011;2366;51.332;6.610;2023-02-15T09:11:39;24.30;;;19.08;;
4704;SDS011;2366;51.332;6.610;2023-02-15T09:14:13;23.00;;;18.83;;
4704;SDS011;2366;51.332;6.610;2023-02-15T09:16:41;31.65;;;19.17;;
4704;SDS011;2366;51.332;6.610;2023-02-15T09:19:11;23.02;;;19.00;;
4704;SDS011;2366;51.332;6.610;2023-02-15T09:21:37;29.77;;;20.97;;
4704;SDS011;2366;51.332;6.610;2023-02-15T09:24:07;23.27;;;19.00;;
4704;SDS011;2366;51.332;6.610;2023-02-15T09:26:36;34.58;;;18.42;;
4704;SDS011;2366;51.332;6.610;2023-02-15T09:29:06;26.35;;;18.63;;
4704;SDS011;2366;51.332;6.610;2023-02-15T09:31:33;23.17;;;18.10;;
4704;SDS011;2366;51.332;6.610;2023-02-15T09:34:02;28.63;;;20.00;;
4704;SDS011;2366;51.332;6.610;2023-02-15T09:39:11;27.20;;;19.42;;
4704;SDS011;2366;51.332;6.610;2023-02-15T09:56:19;23.92;;;17.50;;
4704;SDS011;2366;51.332;6.610;2023-02-15T10:02:02;27.23;;;18.85;;
4704;SDS011;2366;51.332;6.610;2023-02-15T10:04:44;32.42;;;19.48;;
4704;SDS011;2366;51.332;6.610;2023-02-15T10:08:17;31.00;;;19.58;;
4704;SDS011;2366;51.332;6.610;2023-02-15T10:21:30;31.67;;;19.33;;
4704;SDS011;2366;51.332;6.610;2023-02-15T10:24:26;30.75;;;18.40;;
4704;SDS011;2366;51.332;6.610;2023-02-15T10:27:11;35.13;;;18.95;;
4704;SDS011;2366;51.332;6.610;2023-02-15T10:29:39;40.75;;;20.95;;
4704;SDS011;2366;51.332;6.610;2023-02-15T10:32:25;31.33;;;17.33;;
4704;SDS011;2366;51.332;6.610;2023-02-15T10:43:12;28.08;;;17.70;;
4704;SDS011;2366;51.332;6.610;2023-02-15T10:50:57;24.83;;;17.13;;
4704;SDS011;2366;51.332;6.610;2023-02-15T10:56:26;27.67;;;18.83;;
4704;SDS011;2366;51.332;6.610;2023-02-15T10:58:59;27.77;;;17.27;;
4704;SDS011;2366;51.332;6.610;2023-02-15T11:01:43;26.75;;;16.63;;
4704;SDS011;2366;51.332;6.610;2023-02-15T11:07:06;27.70;;;18.45;;
4704;SDS011;2366;51.332;6.610;2023-02-15T11:09:56;29.90;;;19.05;;
4704;SDS011;2366;51.332;6.610;2023-02-15T11:12:26;27.98;;;18.50;;
4704;SDS011;2366;51.332;6.610;2023-02-15T11:17:27;25.38;;;16.88;;
4704;SDS011;2366;51.332;6.610;2023-02-15T11:20:02;35.17;;;20.17;;
4704;SDS011;2366;51.332;6.610;2023-02-15T11:22:42;35.90;;;18.95;;
4704;SDS011;2366;51.332;6.610;2023-02-15T11:25:24;28.40;;;17.35;;
4704;SDS011;2366;51.332;6.610;2023-02-15T11:27:53;28.30;;;17.70;;
4704;SDS011;2366;51.332;6.610;2023-02-15T11:30:21;26.40;;;16.75;;
4704;SDS011;2366;51.332;6.610;2023-02-15T11:32:49;26.20;;;15.23;;
4704;SDS011;2366;51.332;6.610;2023-02-15T11:35:20;30.10;;;18.60;;
4704;SDS011;2366;51.332;6.610;2023-02-15T11:38:16;28.30;;;17.38;;
4704;SDS011;2366;51.332;6.610;2023-02-15T11:40:47;32.42;;;18.88;;
4704;SDS011;2366;51.332;6.610;2023-02-15T11:43:21;23.85;;;16.73;;
4704;SDS011;2366;51.332;6.610;2023-02-15T11:45:54;26.20;;;16.95;;
4704;SDS011;2366;51.332;6.610;2023-02-15T11:48:19;28.07;;;16.87;;
4704;SDS011;2366;51.332;6.610;2023-02-15T11:50:45;27.80;;;18.50;;
4704;SDS011;2366;51.332;6.610;2023-02-15T11:53:12;24.80;;;16.80;;
4704;SDS011;2366;51.332;6.610;2023-02-15T11:55:42;23.65;;;16.02;;
4704;SDS011;2366;51.332;6.610;2023-02-15T11:58:32;25.35;;;15.85;;
4704;SDS011;2366;51.332;6.610;2023-02-15T12:04:08;26.60;;;16.70;;
4704;SDS011;2366;51.332;6.610;2023-02-15T12:06:45;23.60;;;15.88;;
4704;SDS011;2366;51.332;6.610;2023-02-15T12:14:50;26.55;;;17.00;;
4704;SDS011;2366;51.332;6.610;2023-02-15T12:17:20;23.83;;;15.27;;
4704;SDS011;2366;51.332;6.610;2023-02-15T12:19:48;27.13;;;17.08;;
4704;SDS011;2366;51.332;6.610;2023-02-15T12:22:30;30.65;;;16.20;;
4704;SDS011;2366;51.332;6.610;2023-02-15T12:24:58;23.83;;;15.25;;
4704;SDS011;2366;51.332;6.610;2023-02-15T12:27:31;27.15;;;17.08;;
4704;SDS011;2366;51.332;6.610;2023-02-15T12:29:59;29.77;;;16.63;;
4704;SDS011;2366;51.332;6.610;2023-02-15T12:32:31;27.73;;;16.75;;
4704;SDS011;2366;51.332;6.610;2023-02-15T12:35:01;27.30;;;16.25;;
4704;SDS011;2366;51.332;6.610;2023-02-15T12:37:34;25.00;;;16.65;;
4704;SDS011;2366;51.332;6.610;2023-02-15T12:40:02;31.08;;;19.73;;
4704;SDS011;2366;51.332;6.610;2023-02-15T12:42:44;29.52;;;17.23;;
4704;SDS011;2366;51.332;6.610;2023-02-15T12:45:21;27.60;;;16.20;;
4704;SDS011;2366;51.332;6.610;2023-02-15T12:50:49;25.55;;;15.68;;
4704;SDS011;2366;51.332;6.610;2023-02-15T12:55:56;23.77;;;16.17;;
4704;SDS011;2366;51.332;6.610;2023-02-15T12:58:27;27.83;;;18.08;;
4704;SDS011;2366;51.332;6.610;2023-02-15T13:03:58;27.67;;;16.58;;
4704;SDS011;2366;51.332;6.610;2023-02-15T13:06:27;23.98;;;15.90;;
4704;SDS011;2366;51.332;6.610;2023-02-15T13:08:56;26.70;;;17.50;;
4704;SDS011;2366;51.332;6.610;2023-02-15T13:11:30;26.52;;;18.55;;
4704;SDS011;2366;51.332;6.610;2023-02-15T13:14:15;28.55;;;18.05;;
4704;SDS011;2366;51.332;6.610;2023-02-15T13:16:41;23.88;;;15.98;;
4704;SDS011;2366;51.332;6.610;2023-02-15T13:19:10;22.13;;;15.82;;
4704;SDS011;2366;51.332;6.610;2023-02-15T13:21:40;30.73;;;17.55;;
4704;SDS011;2366;51.332;6.610;2023-02-15T13:26:52;24.92;;;15.05;;
4704;SDS011;2366;51.332;6.610;2023-02-15T13:29:24;26.73;;;16.35;;
4704;SDS011;2366;51.332;6.610;2023-02-15T13:31:52;28.95;;;17.63;;
4704;SDS011;2366;51.332;6.610;2023-02-15T13:34:39;32.80;;;17.60;;
4704;SDS011;2366;51.332;6.610;2023-02-15T13:37:12;21.70;;;15.57;;
4704;SDS011;2366;51.332;6.610;2023-02-15T13:42:19;37.70;;;16.02;;
4704;SDS011;2366;51.332;6.610;2023-02-15T13:54:05;25.25;;;15.52;;
4704;SDS011;2366;51.332;6.610;2023-02-15T14:03:02;33.50;;;16.35;;
4704;SDS011;2366;51.332;6.610;2023-02-15T14:17:04;23.10;;;14.25;;
4704;SDS011;2366;51.332;6.610;2023-02-15T14:19:46;26.38;;;16.95;;
4704;SDS011;2366;51.332;6.610;2023-02-15T14:28:11;28.83;;;15.75;;
4704;SDS011;2366;51.332;6.610;2023-02-15T14:30:48;23.10;;;15.10;;
4704;SDS011;2366;51.332;6.610;2023-02-15T14:35:41;30.92;;;18.23;;
4704;SDS011;2366;51.332;6.610;2023-02-15T14:44:13;23.45;;;16.20;;
4704;SDS011;2366;51.332;6.610;2023-02-15T14:46:58;22.77;;;16.40;;
4704;SDS011;2366;51.332;6.610;2023-02-15T14:49:32;22.52;;;14.77;;
4704;SDS011;2366;51.332;6.610;2023-02-15T14:52:02;26.40;;;15.43;;
4704;SDS011;2366;51.332;6.610;2023-02-15T14:59:27;30.20;;;16.90;;
4704;SDS011;2366;51.332;6.610;2023-02-15T15:04:33;25.80;;;16.53;;
4704;SDS011;2366;51.332;6.610;2023-02-15T15:09:43;26.95;;;16.45;;
4704;SDS011;2366;51.332;6.610;2023-02-15T15:14:45;33.15;;;17.02;;
4704;SDS011;2366;51.332;6.610;2023-02-15T15:17:12;20.13;;;14.93;;
4704;SDS011;2366;51.332;6.610;2023-02-15T15:19:57;26.88;;;16.60;;
4704;SDS011;2366;51.332;6.610;2023-02-15T15:22:30;25.85;;;16.73;;
4704;SDS011;2366;51.332;6.610;2023-02-15T15:25:00;23.00;;;16.08;;
4704;SDS011;2366;51.332;6.610;2023-02-15T15:35:13;23.05;;;16.23;;
4704;SDS011;2366;51.332;6.610;2023-02-15T15:48:42;24.77;;;15.48;;
4704;SDS011;2366;51.332;6.610;2023-02-15T15:51:20;26.60;;;16.47;;
4704;SDS011;2366;51.332;6.610;2023-02-15T15:53:52;22.27;;;16.50;;
4704;SDS011;2366;51.332;6.610;2023-02-15T15:56:20;24.30;;;17.02;;
4704;SDS011;2366;51.332;6.610;2023-02-15T15:58:54;23.45;;;15.95;;
4704;SDS011;2366;51.332;6.610;2023-02-15T16:01:27;26.25;;;15.30;;
4704;SDS011;2366;51.332;6.610;2023-02-15T16:03:55;24.23;;;16.35;;
4704;SDS011;2366;51.332;6.610;2023-02-15T16:06:26;21.45;;;14.27;;
4704;SDS011;2366;51.332;6.610;2023-02-15T16:08:53;26.73;;;17.02;;
4704;SDS011;2366;51.332;6.610;2023-02-15T16:11:21;23.52;;;15.05;;
4704;SDS011;2366;51.332;6.610;2023-02-15T16:13:52;26.85;;;17.40;;
4704;SDS011;2366;51.332;6.610;2023-02-15T16:16:25;29.90;;;15.82;;
4704;SDS011;2366;51.332;6.610;2023-02-15T16:18:53;25.90;;;16.17;;
4704;SDS011;2366;51.332;6.610;2023-02-15T16:21:21;24.50;;;14.68;;
4704;SDS011;2366;51.332;6.610;2023-02-15T16:26:49;25.90;;;16.45;;
4704;SDS011;2366;51.332;6.610;2023-02-15T16:29:28;25.75;;;16.95;;
4704;SDS011;2366;51.332;6.610;2023-02-15T16:32:02;25.67;;;16.33;;
4704;SDS011;2366;51.332;6.610;2023-02-15T16:34:29;26.88;;;15.75;;
4704;SDS011;2366;51.332;6.610;2023-02-15T16:37:17;23.80;;;16.95;;
4704;SDS011;2366;51.332;6.610;2023-02-15T16:39:44;29.33;;;15.80;;
4704;SDS011;2366;51.332;6.610;2023-02-15T16:42:12;25.42;;;17.85;;
4704;SDS011;2366;51.332;6.610;2023-02-15T16:44:40;29.73;;;17.27;;
4704;SDS011;2366;51.332;6.610;2023-02-15T16:47:23;23.70;;;16.87;;
4704;SDS011;2366;51.332;6.610;2023-02-15T16:49:51;30.58;;;19.50;;
4704;SDS011;2366;51.332;6.610;2023-02-15T16:52:22;23.92;;;16.58;;
4704;SDS011;2366;51.332;6.610;2023-02-15T16:54:52;26.38;;;16.15;;
4704;SDS011;2366;51.332;6.610;2023-02-15T16:57:27;30.33;;;16.58;;
4704;SDS011;2366;51.332;6.610;2023-02-15T17:00:04;23.42;;;15.65;;
4704;SDS011;2366;51.332;6.610;2023-02-15T17:02:31;25.85;;;15.45;;
4704;SDS011;2366;51.332;6.610;2023-02-15T17:05:13;22.98;;;15.88;;
4704;SDS011;2366;51.332;6.610;2023-02-15T17:10:29;26.48;;;16.27;;
4704;SDS011;2366;51.332;6.610;2023-02-15T17:13:16;25.40;;;15.77;;
4704;SDS011;2366;51.332;6.610;2023-02-15T17:16:25;22.88;;;15.00;;
4704;SDS011;2366;51.332;6.610;2023-02-15T17:18:51;24.85;;;15.40;;
4704;SDS011;2366;51.332;6.610;2023-02-15T17:21:19;26.63;;;17.38;;
4704;SDS011;2366;51.332;6.610;2023-02-15T17:23:49;21.80;;;13.70;;
4704;SDS011;2366;51.332;6.610;2023-02-15T17:26:29;32.53;;;16.30;;
4704;SDS011;2366;51.332;6.610;2023-02-15T17:28:58;23.85;;;16.02;;
4704;SDS011;2366;51.332;6.610;2023-02-15T17:31:27;26.80;;;18.13;;
4704;SDS011;2366;51.332;6.610;2023-02-15T17:33:56;26.17;;;17.42;;
4704;SDS011;2366;51.332;6.610;2023-02-15T17:36:24;26.98;;;15.77;;
4704;SDS011;2366;51.332;6.610;2023-02-15T17:41:21;24.92;;;15.73;;
4704;SDS011;2366;51.332;6.610;2023-02-15T17:43:47;23.87;;;16.60;;
4704;SDS011;2366;51.332;6.610;2023-02-15T17:46:12;70.30;;;32.30;;
4704;SDS011;2366;51.332;6.610;2023-02-15T17:48:39;24.00;;;17.07;;
4704;SDS011;2366;51.332;6.610;2023-02-15T17:51:06;30.90;;;16.65;;
4704;SDS011;2366;51.332;6.610;2023-02-15T17:53:37;22.35;;;15.60;;
4704;SDS011;2366;51.332;6.610;2023-02-15T17:56:03;21.33;;;14.77;;
4704;SDS011;2366;51.332;6.610;2023-02-15T17:58:35;24.73;;;16.23;;
4704;SDS011;2366;51.332;6.610;2023-02-15T18:01:01;32.35;;;18.63;;
4704;SDS011;2366;51.332;6.610;2023-02-15T18:03:50;32.13;;;16.77;;